createdAt,value
2022-08-18T00:02:26.251Z,16.98
2022-08-18T00:04:57.206Z,17.65
2022-08-18T00:07:31.222Z,17.08
2022-08-18T00:09:59.747Z,17.90
2022-08-18T00:12:33.236Z,15.98
2022-08-18T00:15:04.193Z,15.82
2022-08-18T00:17:32.127Z,18.90
2022-08-18T00:19:59.210Z,15.80
2022-08-18T00:22:26.440Z,18.95
2022-08-18T00:24:55.430Z,16.48
2022-08-18T00:27:29.143Z,17.70
2022-08-18T00:30:01.294Z,17.65
2022-08-18T00:32:34.224Z,19.38
2022-08-18T00:37:41.098Z,20.20
2022-08-18T00:40:10.757Z,22.30
2022-08-18T00:42:45.691Z,18.70
2022-08-18T00:45:20.354Z,21.13
2022-08-18T00:47:47.460Z,19.13
2022-08-18T00:50:20.251Z,18.08
2022-08-18T00:52:55.406Z,22.38
2022-08-18T00:55:24.125Z,18.77
2022-08-18T00:57:55.136Z,22.58
2022-08-18T01:00:22.961Z,26.83
2022-08-18T01:02:55.982Z,27.45
2022-08-18T01:05:27.391Z,23.55
2022-08-18T01:07:54.459Z,23.42
2022-08-18T01:10:23.420Z,26.40
2022-08-18T01:12:53.956Z,27.30
2022-08-18T01:15:29.399Z,23.55
2022-08-18T01:18:25.570Z,27.08
2022-08-18T01:21:39.221Z,27.20
2022-08-18T01:24:08.900Z,26.40
2022-08-18T01:26:44.943Z,24.98
2022-08-18T01:29:18.683Z,25.65
2022-08-18T01:31:55.473Z,29.00
2022-08-18T01:34:26.014Z,25.88
2022-08-18T01:36:55.014Z,22.55
2022-08-18T01:41:20.957Z,24.98
2022-08-18T01:42:09.899Z,25.77
2022-08-18T01:44:36.895Z,25.25
2022-08-18T01:47:04.212Z,28.52
2022-08-18T01:49:31.125Z,29.10
2022-08-18T01:51:58.132Z,27.65
2022-08-18T01:54:29.954Z,27.42
2022-08-18T01:56:56.973Z,26.50
2022-08-18T01:59:23.824Z,31.13
2022-08-18T02:01:55.761Z,26.10
2022-08-18T02:04:36.453Z,29.87
2022-08-18T02:07:07.760Z,28.95
2022-08-18T02:09:36.600Z,30.45
2022-08-18T02:12:05.601Z,29.52
2022-08-18T02:14:33.000Z,32.33
2022-08-18T02:17:02.537Z,33.72
2022-08-18T02:19:39.016Z,29.80
2022-08-18T02:22:08.003Z,31.70
2022-08-18T02:24:35.113Z,33.55
2022-08-18T02:27:02.081Z,34.55
2022-08-18T02:29:29.099Z,32.28
2022-08-18T02:31:56.144Z,34.03
2022-08-18T02:34:23.611Z,31.63
2022-08-18T02:36:50.535Z,30.80
2022-08-18T02:39:17.884Z,32.20
2022-08-18T02:41:44.831Z,31.08
2022-08-18T02:44:11.863Z,33.28
2022-08-18T02:46:38.894Z,33.85
2022-08-18T02:49:08.172Z,32.55
2022-08-18T02:51:35.284Z,30.00
2022-08-18T02:54:02.250Z,29.40
2022-08-18T02:56:40.348Z,32.75
2022-08-18T02:59:12.498Z,36.85
2022-08-18T03:01:42.770Z,30.95
2022-08-18T03:04:12.563Z,28.73
2022-08-18T03:06:39.873Z,30.95
2022-08-18T03:09:09.560Z,30.00
2022-08-18T03:11:37.357Z,31.70
2022-08-18T03:14:05.662Z,31.48
2022-08-18T03:16:33.436Z,28.02
2022-08-18T03:19:01.813Z,30.23
2022-08-18T03:21:31.532Z,27.27
2022-08-18T03:24:00.682Z,27.80
2022-08-18T03:26:30.143Z,30.13
2022-08-18T03:28:58.304Z,35.05
2022-08-18T03:31:27.775Z,35.60
2022-08-18T03:33:59.380Z,33.72
2022-08-18T03:36:31.926Z,28.48
2022-08-18T03:39:01.804Z,31.33
2022-08-18T03:41:57.208Z,30.40
2022-08-18T03:44:18.310Z,34.13
2022-08-18T03:46:45.407Z,33.33
2022-08-18T03:49:12.809Z,40.50
2022-08-18T03:51:43.665Z,38.85
2022-08-18T03:54:13.214Z,36.20
2022-08-18T03:56:41.667Z,38.15
2022-08-18T03:59:13.739Z,39.08
2022-08-18T04:01:42.504Z,39.50
2022-08-18T04:04:12.135Z,39.65
2022-08-18T04:07:05.099Z,36.60
2022-08-18T04:09:32.966Z,43.67
2022-08-18T04:12:15.359Z,40.45
2022-08-18T04:14:46.557Z,41.65
2022-08-18T04:17:13.512Z,36.92
2022-08-18T04:19:40.350Z,36.33
2022-08-18T04:22:07.179Z,43.40
2022-08-18T04:24:34.719Z,42.58
2022-08-18T04:27:05.018Z,40.28
2022-08-18T04:29:32.222Z,41.03
2022-08-18T04:32:01.406Z,42.70
2022-08-18T04:34:28.453Z,40.90
2022-08-18T04:36:55.384Z,43.88
2022-08-18T04:39:23.586Z,37.75
2022-08-18T04:41:51.262Z,40.83
2022-08-18T04:44:18.782Z,44.95
2022-08-18T04:46:49.036Z,50.53
2022-08-18T04:49:17.954Z,48.00
2022-08-18T04:52:26.848Z,46.10
2022-08-18T04:54:53.057Z,46.33
2022-08-18T04:57:21.692Z,44.50
2022-08-18T04:59:51.163Z,43.95
2022-08-18T05:02:19.661Z,42.20
2022-08-18T05:04:47.306Z,38.33
2022-08-18T05:07:17.932Z,40.85
2022-08-18T05:09:44.807Z,39.10
2022-08-18T05:12:14.330Z,37.10
2022-08-18T05:14:44.643Z,40.17
2022-08-18T05:17:12.766Z,40.42
2022-08-18T05:19:42.268Z,38.15
2022-08-18T05:22:13.957Z,34.50
2022-08-18T05:24:41.591Z,34.58
2022-08-18T05:27:08.563Z,36.42
2022-08-18T05:29:41.472Z,38.15
2022-08-18T05:32:37.340Z,36.53
2022-08-18T05:35:02.552Z,35.25
2022-08-18T05:37:41.301Z,34.28
2022-08-18T05:40:11.257Z,34.75
2022-08-18T05:42:40.585Z,42.35
2022-08-18T05:45:12.658Z,48.10
2022-08-18T05:47:39.605Z,48.70
2022-08-18T05:50:17.324Z,58.97
2022-08-18T05:53:13.966Z,57.28
2022-08-18T05:56:13.955Z,59.90
2022-08-18T05:58:46.340Z,63.03
2022-08-18T06:01:21.623Z,64.93
2022-08-18T06:04:23.313Z,74.43
2022-08-18T06:06:51.579Z,77.15
2022-08-18T06:09:24.547Z,85.97
2022-08-18T06:14:20.263Z,93.22
2022-08-18T06:17:13.445Z,85.50
2022-08-18T06:19:47.719Z,97.88
2022-08-18T06:22:26.973Z,85.25
2022-08-18T06:25:06.531Z,94.78
2022-08-18T06:28:22.959Z,85.60
2022-08-18T06:31:11.087Z,95.75
2022-08-18T06:33:59.185Z,95.95
2022-08-18T06:36:49.966Z,96.50
2022-08-18T06:39:44.459Z,106.68
2022-08-18T06:42:11.370Z,107.72
2022-08-18T06:44:44.383Z,110.88
2022-08-18T06:47:31.004Z,120.18
2022-08-18T06:50:23.184Z,113.03
2022-08-18T06:52:56.362Z,120.43
2022-08-18T06:55:46.010Z,133.15
2022-08-18T06:58:15.913Z,137.98
2022-08-18T07:00:47.505Z,138.40
2022-08-18T07:03:38.236Z,130.20
2022-08-18T07:06:31.566Z,148.27
2022-08-18T07:12:04.581Z,156.65
2022-08-18T07:14:32.296Z,144.95
2022-08-18T07:17:22.385Z,148.38
2022-08-18T07:20:17.841Z,153.18
2022-08-18T07:22:53.980Z,149.32
2022-08-18T07:25:27.909Z,156.10
2022-08-18T07:27:57.263Z,141.95
2022-08-18T07:30:24.934Z,129.38
2022-08-18T07:33:12.347Z,131.32
2022-08-18T07:35:49.524Z,128.15
2022-08-18T07:38:42.051Z,130.00
2022-08-18T07:41:16.934Z,133.00
2022-08-18T07:43:59.545Z,119.75
2022-08-18T07:47:00.606Z,133.13
2022-08-18T07:49:32.927Z,132.88
2022-08-18T07:52:16.338Z,133.18
2022-08-18T07:55:06.472Z,133.27
2022-08-18T07:57:52.129Z,139.55
2022-08-18T08:00:55.318Z,137.57
2022-08-18T08:03:41.547Z,132.88
2022-08-18T08:06:19.147Z,145.85
2022-08-18T08:09:35.246Z,133.73
2022-08-18T08:12:11.250Z,130.50
2022-08-18T08:14:52.120Z,122.25
2022-08-18T08:17:25.762Z,125.78
2022-08-18T08:20:11.997Z,122.25
2022-08-18T08:23:04.795Z,99.72
2022-08-18T08:25:47.249Z,94.20
2022-08-18T08:28:31.580Z,90.18
2022-08-18T08:31:36.663Z,85.18
2022-08-18T08:34:33.643Z,75.00
2022-08-18T08:37:04.058Z,76.60
2022-08-18T08:39:49.713Z,77.07
2022-08-18T08:42:31.875Z,82.13
2022-08-18T08:45:16.265Z,75.20
2022-08-18T08:48:11.494Z,73.65
2022-08-18T08:50:49.266Z,69.95
2022-08-18T08:53:27.785Z,67.40
2022-08-18T08:56:02.524Z,67.68
2022-08-18T08:58:51.215Z,69.63
2022-08-18T09:01:27.115Z,70.60
2022-08-18T09:04:17.258Z,66.68
2022-08-18T09:06:53.069Z,69.35
2022-08-18T09:09:28.997Z,77.57
2022-08-18T09:12:13.905Z,79.68
2022-08-18T09:15:03.934Z,70.70
2022-08-18T09:18:08.552Z,75.72
2022-08-18T09:20:36.021Z,73.40
2022-08-18T09:23:18.369Z,69.90
2022-08-18T09:25:54.618Z,74.43
2022-08-18T09:28:30.674Z,67.32
2022-08-18T09:31:08.571Z,69.13
2022-08-18T09:33:40.650Z,65.97
2022-08-18T09:36:15.254Z,75.85
2022-08-18T09:39:36.381Z,73.18
2022-08-18T09:42:17.148Z,78.72
2022-08-18T09:44:48.753Z,80.22
2022-08-18T09:47:22.318Z,81.82
2022-08-18T09:49:53.824Z,74.50
2022-08-18T09:52:24.247Z,88.45
2022-08-18T09:54:53.761Z,75.05
2022-08-18T09:57:27.323Z,73.82
2022-08-18T09:59:56.834Z,77.57
2022-08-18T10:02:28.462Z,72.50
2022-08-18T10:05:17.576Z,82.18
2022-08-18T10:11:23.675Z,77.03
2022-08-18T10:14:23.400Z,74.68
2022-08-18T10:17:23.726Z,65.30
2022-08-18T10:20:26.755Z,69.40
2022-08-18T10:22:56.575Z,72.43
2022-08-18T10:25:37.296Z,61.55
2022-08-18T10:28:08.014Z,60.60
2022-08-18T10:30:56.923Z,67.72
2022-08-18T10:34:19.164Z,56.80
2022-08-18T10:36:58.871Z,60.35
2022-08-18T10:42:44.787Z,54.63
2022-08-18T10:48:34.773Z,53.45
2022-08-18T10:51:27.518Z,46.60
2022-08-18T10:54:02.594Z,53.58
2022-08-18T10:56:57.689Z,43.97
2022-08-18T10:59:31.912Z,46.05
2022-08-18T11:03:21.147Z,49.47
2022-08-18T11:05:42.985Z,66.20
2022-08-18T11:08:20.235Z,61.10
2022-08-18T11:11:27.434Z,67.35
2022-08-18T11:14:08.561Z,69.20
2022-08-18T11:16:59.528Z,58.90
2022-08-18T11:19:27.274Z,63.50
2022-08-18T11:21:54.340Z,63.45
2022-08-18T11:24:23.276Z,63.78
2022-08-18T11:27:04.384Z,58.13
2022-08-18T11:29:42.847Z,60.78
2022-08-18T11:32:34.946Z,61.00
2022-08-18T11:35:04.834Z,62.58
2022-08-18T11:37:56.387Z,63.58
2022-08-18T11:41:08.775Z,59.22
2022-08-18T11:46:29.596Z,53.97
2022-08-18T11:49:13.819Z,53.88
2022-08-18T11:52:02.187Z,53.47
2022-08-18T11:54:50.523Z,56.53
2022-08-18T12:00:46.336Z,54.03
2022-08-18T12:03:28.831Z,53.05
2022-08-18T12:06:10.528Z,51.10
2022-08-18T12:09:19.989Z,52.58
2022-08-18T12:12:13.786Z,51.25
2022-08-18T12:15:04.871Z,54.40
2022-08-18T12:17:39.142Z,54.67
2022-08-18T12:20:12.023Z,48.33
2022-08-18T12:22:43.000Z,49.17
2022-08-18T12:25:13.436Z,56.90
2022-08-18T12:27:41.525Z,53.90
2022-08-18T12:30:16.721Z,52.10
2022-08-18T12:35:30.712Z,46.72
2022-08-18T12:40:44.974Z,52.50
2022-08-18T12:43:12.422Z,49.30
2022-08-18T12:45:40.325Z,53.20
2022-08-18T12:48:08.325Z,44.95
2022-08-18T12:50:49.684Z,45.83
2022-08-18T12:53:17.209Z,44.65
2022-08-18T12:55:45.695Z,46.33
2022-08-18T12:58:13.131Z,46.55
2022-08-18T13:00:41.243Z,45.78
2022-08-18T13:03:08.656Z,47.75
2022-08-18T13:05:36.226Z,46.78
2022-08-18T13:08:05.955Z,50.83
2022-08-18T13:10:45.637Z,48.00
2022-08-18T13:13:25.096Z,50.90
2022-08-18T13:15:58.285Z,48.67
2022-08-18T13:18:27.442Z,48.83
2022-08-18T13:21:00.310Z,46.92
2022-08-18T13:23:28.517Z,70.72
2022-08-18T13:25:59.561Z,37.17
2022-08-18T13:28:35.884Z,43.80
2022-08-18T13:31:16.961Z,36.60
2022-08-18T13:33:59.397Z,36.40
2022-08-18T13:36:45.981Z,36.60
2022-08-18T13:39:19.193Z,44.17
2022-08-18T13:41:48.087Z,31.02
2022-08-18T13:44:19.018Z,34.05
2022-08-18T13:46:48.355Z,33.65
2022-08-18T13:49:18.628Z,39.00
2022-08-18T13:51:59.204Z,36.50
2022-08-18T13:54:35.135Z,35.60
2022-08-18T13:57:03.669Z,39.15
2022-08-18T13:59:33.165Z,33.80
2022-08-18T14:02:05.958Z,43.00
2022-08-18T14:04:36.417Z,37.25
2022-08-18T14:07:09.988Z,36.40
2022-08-18T14:09:38.419Z,34.92
2022-08-18T14:12:21.463Z,39.58
2022-08-18T14:14:54.392Z,37.95
2022-08-18T14:17:24.831Z,36.72
2022-08-18T14:20:15.512Z,35.88
2022-08-18T14:23:12.339Z,40.50
2022-08-18T14:25:59.815Z,35.60
2022-08-18T14:28:28.444Z,38.60
2022-08-18T14:30:56.961Z,36.15
2022-08-18T14:33:49.599Z,30.38
2022-08-18T14:36:16.481Z,30.35
2022-08-18T14:38:45.250Z,35.30
2022-08-18T14:41:14.783Z,34.90
2022-08-18T14:44:10.961Z,31.20
2022-08-18T14:46:32.741Z,30.98
2022-08-18T14:49:04.147Z,27.98
2022-08-18T14:51:33.709Z,32.75
2022-08-18T14:54:01.655Z,30.40
2022-08-18T14:56:29.638Z,28.73
2022-08-18T14:58:59.628Z,28.08
2022-08-18T15:01:27.394Z,27.55
2022-08-18T15:03:55.041Z,25.73
2022-08-18T15:06:27.092Z,29.92
2022-08-18T15:08:54.875Z,28.92
2022-08-18T15:11:24.928Z,31.75
2022-08-18T15:13:55.132Z,28.42
2022-08-18T15:16:31.550Z,26.10
2022-08-18T15:18:59.397Z,26.17
2022-08-18T15:21:49.074Z,23.30
2022-08-18T15:24:39.782Z,26.08
2022-08-18T15:27:10.443Z,23.10
2022-08-18T15:29:46.612Z,25.10
2022-08-18T15:32:17.643Z,20.90
2022-08-18T15:34:46.415Z,21.02
2022-08-18T15:37:19.986Z,21.77
2022-08-18T15:39:55.437Z,17.38
2022-08-18T15:42:23.698Z,16.85
2022-08-18T15:44:52.752Z,18.65
2022-08-18T15:47:21.316Z,21.70
2022-08-18T15:49:48.531Z,14.85
2022-08-18T15:52:17.653Z,15.45
2022-08-18T15:54:50.327Z,13.75
2022-08-18T15:57:39.655Z,17.27
2022-08-18T16:00:06.006Z,17.52
2022-08-18T16:02:33.749Z,18.75
2022-08-18T16:05:10.478Z,15.52
2022-08-18T16:07:45.199Z,15.50
2022-08-18T16:10:13.675Z,19.42
2022-08-18T16:12:45.719Z,21.27
2022-08-18T16:17:50.452Z,19.35
2022-08-18T16:20:18.884Z,19.88
2022-08-18T16:22:47.183Z,18.08
2022-08-18T16:25:16.613Z,16.63
2022-08-18T16:27:44.472Z,19.00
2022-08-18T16:30:15.064Z,18.23
2022-08-18T16:32:42.531Z,15.90
2022-08-18T16:35:11.146Z,18.10
2022-08-18T16:37:38.235Z,17.60
2022-08-18T16:40:06.647Z,14.95
2022-08-18T16:42:33.648Z,17.58
2022-08-18T16:45:01.558Z,14.02
2022-08-18T16:47:28.768Z,12.35
2022-08-18T16:49:58.487Z,11.70
2022-08-18T16:52:27.204Z,10.27
2022-08-18T16:54:58.038Z,10.98
2022-08-18T16:57:53.979Z,12.48
2022-08-18T17:00:41.947Z,10.80
2022-08-18T17:03:28.149Z,9.60
2022-08-18T17:06:07.660Z,11.20
2022-08-18T17:08:35.831Z,10.88
2022-08-18T17:11:04.563Z,10.85
2022-08-18T17:13:32.423Z,12.20
2022-08-18T17:15:59.292Z,10.30
2022-08-18T17:18:27.083Z,10.48
2022-08-18T17:20:54.359Z,12.27
2022-08-18T17:23:22.570Z,11.35
2022-08-18T17:25:50.872Z,9.75
2022-08-18T17:28:23.065Z,10.40
2022-08-18T17:30:53.499Z,10.43
2022-08-18T17:33:25.754Z,13.93
2022-08-18T17:35:54.254Z,12.00
2022-08-18T17:38:27.692Z,11.15
2022-08-18T17:40:57.186Z,13.30
2022-08-18T17:43:29.125Z,12.90
2022-08-18T17:46:02.245Z,12.60
2022-08-18T17:48:37.517Z,12.75
2022-08-18T17:51:30.421Z,14.45
2022-08-18T17:54:01.434Z,15.02
2022-08-18T17:56:38.167Z,13.70
2022-08-18T17:59:46.374Z,14.60
2022-08-18T18:02:29.347Z,16.35
2022-08-18T18:05:02.058Z,16.05
2022-08-18T18:07:40.544Z,14.67
2022-08-18T18:10:23.239Z,18.63
2022-08-18T18:13:09.097Z,14.48
2022-08-18T18:15:40.684Z,15.75
2022-08-18T18:18:19.596Z,14.40
2022-08-18T18:21:16.395Z,15.77
2022-08-18T18:23:50.442Z,13.80
2022-08-18T18:26:37.574Z,15.55
2022-08-18T18:29:15.868Z,13.73
2022-08-18T18:31:58.206Z,19.48
2022-08-18T18:34:30.595Z,15.00
2022-08-18T18:36:59.465Z,14.53
2022-08-18T18:39:38.055Z,14.65
2022-08-18T18:42:19.526Z,17.60
2022-08-18T18:44:59.299Z,17.65
2022-08-18T18:47:44.081Z,16.75
2022-08-18T18:50:53.079Z,15.00
2022-08-18T18:53:54.859Z,16.08
2022-08-18T18:56:28.884Z,12.43
2022-08-18T18:59:18.761Z,18.85
2022-08-18T19:02:13.670Z,15.30
2022-08-18T19:05:04.276Z,11.88
2022-08-18T19:07:49.832Z,13.15
2022-08-18T19:10:39.432Z,10.98
2022-08-18T19:13:32.634Z,14.75
2022-08-18T19:16:33.927Z,14.80
2022-08-18T19:19:38.424Z,11.68
2022-08-18T19:22:45.016Z,11.43
2022-08-18T19:25:26.844Z,11.73
2022-08-18T19:28:12.203Z,13.40
2022-08-18T19:30:44.002Z,11.52
2022-08-18T19:33:24.794Z,12.25
2022-08-18T19:36:04.763Z,15.73
2022-08-18T19:38:59.130Z,14.40
2022-08-18T19:41:56.714Z,12.90
2022-08-18T19:44:26.685Z,14.82
2022-08-18T19:47:04.753Z,13.25
2022-08-18T19:49:50.039Z,11.88
2022-08-18T19:52:59.472Z,12.90
2022-08-18T19:55:44.396Z,13.52
2022-08-18T19:58:20.090Z,11.15
2022-08-18T20:00:57.918Z,12.77
2022-08-18T20:03:52.602Z,13.18
2022-08-18T20:06:36.030Z,16.60
2022-08-18T20:09:13.126Z,16.15
2022-08-18T20:12:22.215Z,13.52
2022-08-18T20:15:03.089Z,12.75
2022-08-18T20:17:31.283Z,15.55
2022-08-18T20:20:13.776Z,10.85
2022-08-18T20:22:46.706Z,13.18
2022-08-18T20:25:17.712Z,18.08
2022-08-18T20:27:53.296Z,13.70
2022-08-18T20:30:20.126Z,17.98
2022-08-18T20:33:05.772Z,14.27
2022-08-18T20:36:15.316Z,12.50
2022-08-18T20:38:48.016Z,11.75
2022-08-18T20:41:24.697Z,13.77
2022-08-18T20:43:55.516Z,17.25
2022-08-18T20:47:04.840Z,13.45
2022-08-18T20:49:50.932Z,13.68
2022-08-18T20:52:29.658Z,13.25
2022-08-18T20:55:11.666Z,16.42
2022-08-18T20:57:40.208Z,16.35
2022-08-18T21:00:22.703Z,13.55
2022-08-18T21:02:57.836Z,13.93
2022-08-18T21:05:27.679Z,13.05
2022-08-18T21:08:19.984Z,12.27
2022-08-18T21:10:58.230Z,12.45
2022-08-18T21:13:41.568Z,12.98
2022-08-18T21:16:11.112Z,13.55
2022-08-18T21:18:39.577Z,11.60
2022-08-18T21:21:26.853Z,11.63
2022-08-18T21:23:58.099Z,14.85
2022-08-18T21:26:26.879Z,11.35
2022-08-18T21:28:58.511Z,14.65
2022-08-18T21:31:42.177Z,14.38
2022-08-18T21:34:33.451Z,12.13
2022-08-18T21:37:08.502Z,14.05
2022-08-18T21:39:46.336Z,12.27
2022-08-18T21:42:28.037Z,14.45
2022-08-18T21:44:57.310Z,12.85
2022-08-18T21:47:33.289Z,16.27
2022-08-18T21:50:23.248Z,13.27
2022-08-18T21:52:54.171Z,15.65
2022-08-18T21:55:27.290Z,13.98
2022-08-18T21:58:01.344Z,12.10
2022-08-18T22:00:32.057Z,13.13
2022-08-18T22:03:28.278Z,14.00
2022-08-18T22:06:21.361Z,13.40
2022-08-18T22:09:28.700Z,12.73
2022-08-18T22:12:52.738Z,11.25
2022-08-18T22:15:39.390Z,15.52
2022-08-18T22:18:28.687Z,17.88
2022-08-18T22:20:58.784Z,19.67
2022-08-18T22:23:57.312Z,17.83
2022-08-18T22:26:28.745Z,12.02
2022-08-18T22:29:21.559Z,15.07
2022-08-18T22:31:51.548Z,20.02
2022-08-18T22:34:27.730Z,13.55
2022-08-18T22:37:01.621Z,13.90
2022-08-18T22:39:37.930Z,12.52
2022-08-18T22:42:07.091Z,11.55
2022-08-18T22:44:34.201Z,11.23
2022-08-18T22:47:03.286Z,11.98
2022-08-18T22:49:30.724Z,12.57
2022-08-18T22:51:58.171Z,9.85
2022-08-18T22:54:25.496Z,11.00
2022-08-18T22:56:53.795Z,16.30
2022-08-18T22:59:26.998Z,11.63
2022-08-18T23:01:55.288Z,12.13
2022-08-18T23:04:25.590Z,9.60
2022-08-18T23:06:53.837Z,12.23
2022-08-18T23:09:26.988Z,11.43
2022-08-18T23:11:56.284Z,10.70
2022-08-18T23:14:23.436Z,11.45
2022-08-18T23:16:50.919Z,12.02
2022-08-18T23:19:19.600Z,11.05
2022-08-18T23:21:48.514Z,14.20
2022-08-18T23:24:16.891Z,12.73
2022-08-18T23:26:43.805Z,10.07
2022-08-18T23:29:12.500Z,11.23
2022-08-18T23:31:41.640Z,15.40
2022-08-18T23:34:11.511Z,13.48
2022-08-18T23:36:45.070Z,10.93
2022-08-18T23:39:13.091Z,12.43
2022-08-18T23:41:40.071Z,15.45
2022-08-18T23:44:07.156Z,11.38
2022-08-18T23:46:34.941Z,16.75
2022-08-18T23:49:04.244Z,13.00
2022-08-18T23:51:37.423Z,10.35
2022-08-18T23:54:08.071Z,13.98
2022-08-18T23:56:36.336Z,10.40
2022-08-18T23:59:06.361Z,12.77
